Time;durP1;ratioP1;P1;durP2;ratioP2;P2;SDS_P1;SDS_P2;PMS_P1;PMS_P2;Temp;Humidity;BMP_temperature;BMP_pressure;BME280_temperature;BME280_humidity;BME280_pressure;Samples;Min_cycle;Max_cycle;Signal;HPM_P1;HPM_P2
2023/08/15 00:01:49;;;;;;;;;;;22.10;99.90;;;;;;5116313;28;19914;-71
2023/08/15 00:04:14;;;;;;;;;;;22.10;99.90;;;;;;5114735;28;19931;-71
2023/08/15 00:06:39;;;;;;;;;;;22.00;99.90;;;;;;5115722;28;19904;-71
2023/08/15 00:09:05;;;;;;;;;;;22.00;99.90;;;;;;5115665;28;19926;-71
2023/08/15 00:11:30;;;;;;;;;;;22.00;99.90;;;;;;5115003;28;19904;-72
2023/08/15 00:13:56;;;;;;;;;;;22.00;99.90;;;;;;5115318;28;19950;-73
2023/08/15 00:16:22;;;;;;;;;;;22.00;99.90;;;;;;5115003;28;19904;-71
2023/08/15 00:18:47;;;;;;;;;;;22.00;99.90;;;;;;5115177;28;19919;-72
2023/08/15 00:21:13;;;;;;;;;;;22.00;99.90;;;;;;5114939;28;19949;-70
2023/08/15 00:23:38;;;;;;;;;;;22.00;99.90;;;;;;5115560;28;19949;-72
2023/08/15 00:26:04;;;;;;;;;;;22.30;99.90;;;;;;5115581;28;19904;-71
2023/08/15 00:28:29;;;;;;;;;;;21.90;99.90;;;;;;5114301;28;19943;-72
2023/08/15 00:30:55;;;;;;;;;;;21.90;99.90;;;;;;5115414;28;20333;-71
2023/08/15 00:33:20;;;;;;;;;;;21.90;99.90;;;;;;5114123;28;19919;-71
2023/08/15 00:35:47;;;;;;;;;;;21.90;99.90;;;;;;5115250;28;19958;-71
2023/08/15 00:38:12;;;;;;;;;;;21.90;99.90;;;;;;5114177;28;19908;-71
2023/08/15 00:40:39;;;;;;;;;;;21.90;99.90;;;;;;5115138;28;19919;-71
2023/08/15 00:43:05;;;;;;;;;;;21.90;99.90;;;;;;5114554;28;19908;-72
2023/08/15 00:45:30;;;;;;;;;;;21.90;99.90;;;;;;5114093;28;19910;-71
2023/08/15 00:47:56;;;;;;;;;;;21.90;99.90;;;;;;5114842;28;19904;-71
2023/08/15 00:50:23;;;;;;;;;;;21.90;99.90;;;;;;5113828;28;20360;-71
2023/08/15 00:52:48;;;;;;;;;;;21.90;99.90;;;;;;5114823;28;19914;-71
2023/08/15 00:55:14;;;;;;;;;;;21.90;99.90;;;;;;5114091;28;20002;-71
2023/08/15 00:57:39;;;;;;;;;;;21.80;99.90;;;;;;5114798;28;20058;-71
2023/08/15 01:00:06;;;;;;;;;;;21.80;99.90;;;;;;5096690;28;19908;-71
2023/08/15 01:02:32;;;;;;;;;;;21.80;99.90;;;;;;5114383;28;20360;-71
2023/08/15 01:04:57;;;;;;;;;;;21.80;99.90;;;;;;5114645;28;19911;-71
2023/08/15 01:07:25;;;;;;;;;;;;;;;;;;5114047;28;19904;-72
2023/08/15 01:09:51;;;;;;;;;;;;;;;;;;5114339;28;19950;-71
2023/08/15 01:12:17;;;;;;;;;;;;;;;;;;5113664;28;19903;-71
2023/08/15 01:14:42;;;;;;;;;;;;;;;;;;5114517;28;19903;-71
2023/08/15 01:17:08;;;;;;;;;;;;;;;;;;5114568;28;19904;-71
2023/08/15 01:19:34;;;;;;;;;;;;;;;;;;5113827;28;20336;-71
2023/08/15 01:22:00;;;;;;;;;;;;;;;;;;5114176;28;19907;-71
2023/08/15 01:24:26;;;;;;;;;;;;;;;;;;5113466;28;20363;-71
2023/08/15 01:26:52;;;;;;;;;;;;;;;;;;5117316;27;19933;-72
2023/08/15 01:29:18;;;;;;;;;;;;;;;;;;5134211;27;19903;-72
2023/08/15 01:31:44;;;;;;;;;;;;;;;;;;5134601;27;19903;-72
2023/08/15 01:34:10;;;;;;;;;;;;;;;;;;5133983;27;19919;-71
2023/08/15 01:36:36;;;;;;;;;;;;;;;;;;5134175;27;19904;-71
2023/08/15 01:39:03;;;;;;;;;;;;;;;;;;5116198;27;20378;-71
2023/08/15 01:41:28;;;;;;;;;;;;;;;;;;5133513;27;20003;-71
2023/08/15 01:43:54;;;;;;;;;;;;;;;;;;5134565;27;19997;-70
2023/08/15 01:46:20;;;;;;;;;;;;;;;;;;5115116;27;20222;-71
2023/08/15 01:48:46;;;;;;;;;;;;;;;;;;5134129;27;19904;-71
2023/08/15 01:51:12;;;;;;;;;;;;;;;;;;5133854;27;20268;-70
2023/08/15 01:53:38;;;;;;;;;;;;;;;;;;5134150;27;20070;-71
2023/08/15 01:56:04;;;;;;;;;;;;;;;;;;5134299;27;20412;-71
2023/08/15 01:58:29;;;;;;;;;;;;;;;;;;5133259;27;19910;-71
2023/08/15 02:00:55;;;;;;;;;;;;;;;;;;5134202;27;19915;-71
2023/08/15 02:03:21;;;;;;;;;;;;;;;;;;5133300;27;19961;-70
2023/08/15 02:05:47;;;;;;;;;;;;;;;;;;5134203;27;19915;-71
2023/08/15 02:08:13;;;;;;;;;;;;;;;;;;5133438;27;19910;-70
2023/08/15 02:10:39;;;;;;;;;;;;;;;;;;5133820;27;19918;-71
2023/08/15 02:13:05;;;;;;;;;;;;;;;;;;5134163;27;19907;-71
2023/08/15 02:15:31;;;;;;;;;;;;;;;;;;5133308;27;19903;-71
2023/08/15 02:17:57;;;;;;;;;;;;;;;;;;5134158;27;19907;-71
2023/08/15 02:20:22;;;;;;;;;;;;;;;;;;5133129;27;20428;-70
2023/08/15 02:22:48;;;;;;;;;;;;;;;;;;5134127;27;19911;-72
2023/08/15 02:25:14;;;;;;;;;;;;;;;;;;5134318;27;19954;-71
2023/08/15 02:27:40;;;;;;;;;;;;;;;;;;5124356;27;19948;-71
2023/08/15 02:30:08;;;;;;;;;;;;;;;;;;5113946;28;20009;-72
2023/08/15 02:32:34;;;;;;;;;;;;;;;;;;5112872;28;20466;-71
2023/08/15 02:34:59;;;;;;;;;;;;;;;;;;5114356;28;19918;-71
2023/08/15 02:37:25;;;;;;;;;;;;;;;;;;5112773;28;19904;-71
2023/08/15 02:39:51;;;;;;;;;;;;;;;;;;5094871;28;19907;-71
2023/08/15 02:42:17;;;;;;;;;;;;;;;;;;5112057;28;19914;-71
2023/08/15 02:44:43;;;;;;;;;;;;;;;;;;5112881;28;19907;-72
2023/08/15 02:47:09;;;;;;;;;;;;;;;;;;5112847;28;19907;-71
2023/08/15 02:49:35;;;;;;;;;;;;;;;;;;5112416;28;19980;-71
2023/08/15 02:52:01;;;;;;;;;;;;;;;;;;5113217;28;19904;-72
2023/08/15 02:54:26;;;;;;;;;;;;;;;;;;5115842;28;19967;-72
2023/08/15 02:56:52;;;;;;;;;;;;;;;;;;5117040;28;19930;-71
2023/08/15 02:59:21;;;;;;;;;;;;;;;;;;5115941;28;19915;-70
2023/08/15 03:01:50;;;;;;;;;;;;;;;;;;5120958;28;19908;-71
2023/08/15 03:04:19;;;;;;;;;;;;;;;;;;5123937;28;19904;-70
2023/08/15 03:06:46;;;;;;;;;;;;;;;;;;5122483;28;20013;-72
2023/08/15 03:09:14;;;;;;;;;;;20.80;99.90;;;;;;5117611;28;20023;-72
2023/08/15 03:11:39;;;;;;;;;;;20.80;99.90;;;;;;5116811;28;19912;-72
2023/08/15 03:14:05;;;;;;;;;;;20.80;99.90;;;;;;5117085;28;19903;-71
2023/08/15 03:16:30;;;;;;;;;;;20.80;99.90;;;;;;5116137;28;19994;-71
2023/08/15 03:18:56;;;;;;;;;;;20.70;99.90;;;;;;5116763;28;19961;-71
2023/08/15 03:21:21;;;;;;;;;;;20.70;99.90;;;;;;5116148;28;19908;-70
2023/08/15 03:23:47;;;;;;;;;;;20.70;99.90;;;;;;5116643;28;19904;-71
2023/08/15 03:26:16;;;;;;;;;;;;;;;;;;5116795;28;20268;-71
2023/08/15 03:28:44;;;;;;;;;;;;;;;;;;5134662;27;19907;-71
2023/08/15 03:31:11;;;;;;;;;;;;;;;;;;5137017;27;19956;-71
2023/08/15 03:33:37;;;;;;;;;;;20.60;99.90;;;;;;5135648;27;20509;-72
2023/08/15 03:36:03;;;;;;;;;;;20.70;99.90;;;;;;5137062;27;19910;-71
2023/08/15 03:38:28;;;;;;;;;;;20.70;99.90;;;;;;5117792;27;19907;-71
2023/08/15 03:41:02;;;;;;;;;;;20.70;99.90;;;;;;5136862;27;20359;-71
2023/08/15 03:43:28;;;;;;;;;;;20.50;99.90;;;;;;5136108;27;19986;-71
2023/08/15 03:45:53;;;;;;;;;;;20.60;99.90;;;;;;5136458;27;19904;-71
2023/08/15 03:48:19;;;;;;;;;;;20.60;99.90;;;;;;5136078;27;19910;-71
2023/08/15 03:50:45;;;;;;;;;;;;;;;;;;5136390;27;20001;-71
2023/08/15 03:53:11;;;;;;;;;;;;;;;;;;5136534;27;19904;-72
2023/08/15 03:55:36;;;;;;;;;;;;;;;;;;5136066;27;19903;-71
2023/08/15 03:58:02;;;;;;;;;;;;;;;;;;5136642;27;20029;-71
2023/08/15 04:00:28;;;;;;;;;;;;;;;;;;5135560;27;19908;-71
2023/08/15 04:02:54;;;;;;;;;;;;;;;;;;5136154;27;19914;-71
2023/08/15 04:05:20;;;;;;;;;;;;;;;;;;5136236;27;20275;-71
2023/08/15 04:07:46;;;;;;;;;;;;;;;;;;5136101;27;19903;-71
2023/08/15 04:10:13;;;;;;;;;;;;;;;;;;5136767;27;20013;-71
2023/08/15 04:12:39;;;;;;;;;;;;;;;;;;5135132;27;19963;-71
2023/08/15 04:15:05;;;;;;;;;;;;;;;;;;5136012;27;19907;-70
2023/08/15 04:17:30;;;;;;;;;;;;;;;;;;5135465;27;19903;-71
2023/08/15 04:19:56;;;;;;;;;;;;;;;;;;5136031;27;19914;-72
2023/08/15 04:22:22;;;;;;;;;;;;;;;;;;5135378;27;19911;-70
2023/08/15 04:24:48;;;;;;;;;;;;;;;;;;5136040;27;20255;-71
2023/08/15 04:27:14;;;;;;;;;;;;;;;;;;5129711;27;19990;-72
2023/08/15 04:29:40;;;;;;;;;;;;;;;;;;5114624;28;20539;-70
2023/08/15 04:32:06;;;;;;;;;;;;;;;;;;5115386;28;19904;-72
2023/08/15 04:34:32;;;;;;;;;;;;;;;;;;5092470;28;19920;-72
2023/08/15 04:36:58;;;;;;;;;;;;;;;;;;5094736;28;19908;-72
2023/08/15 04:39:24;;;;;;;;;;;;;;;;;;5094144;28;19961;-70
2023/08/15 04:41:49;;;;;;;;;;;;;;;;;;5094932;28;19915;-72
2023/08/15 04:44:15;;;;;;;;;;;;;;;;;;5095248;28;20296;-72
2023/08/15 04:46:41;;;;;;;;;;;;;;;;;;5093810;28;19946;-71
2023/08/15 04:49:07;;;;;;;;;;;;;;;;;;5094539;28;19950;-71
2023/08/15 04:51:33;;;;;;;;;;;;;;;;;;5093635;28;20282;-72
2023/08/15 04:53:59;;;;;;;;;;;;;;;;;;5094622;28;19904;-71
2023/08/15 04:56:25;;;;;;;;;;;;;;;;;;5094002;28;19908;-70
2023/08/15 04:58:51;;;;;;;;;;;;;;;;;;5094622;28;19904;-71
2023/08/15 05:01:17;;;;;;;;;;;;;;;;;;5094790;28;19907;-72
2023/08/15 05:03:42;;;;;;;;;;;;;;;;;;5093750;28;20473;-71
2023/08/15 05:06:08;;;;;;;;;;;;;;;;;;5094440;28;19911;-71
2023/08/15 05:08:34;;;;;;;;;;;;;;;;;;5093418;28;20036;-72
2023/08/15 05:11:00;;;;;;;;;;;;;;;;;;5094094;28;19910;-71
2023/08/15 05:13:26;;;;;;;;;;;;;;;;;;5093455;28;19908;-71
2023/08/15 05:15:52;;;;;;;;;;;;;;;;;;5093923;28;19908;-71
2023/08/15 05:18:18;;;;;;;;;;;;;;;;;;5094044;28;19912;-71
2023/08/15 05:20:44;;;;;;;;;;;;;;;;;;5093003;28;19908;-71
2023/08/15 05:23:10;;;;;;;;;;;;;;;;;;5093700;28;20279;-72
2023/08/15 05:25:35;;;;;;;;;;;;;;;;;;5092654;28;19957;-71
2023/08/15 05:28:01;;;;;;;;;;;;;;;;;;5079916;28;19911;-71
2023/08/15 05:30:27;;;;;;;;;;;;;;;;;;5072736;28;19911;-70
2023/08/15 05:32:53;;;;;;;;;;;;;;;;;;5077062;28;19915;-71
2023/08/15 05:35:19;;;;;;;;;;;;;;;;;;5093893;28;19911;-72
2023/08/15 05:37:45;;;;;;;;;;;;;;;;;;5093108;28;19900;-72
2023/08/15 05:40:11;;;;;;;;;;;;;;;;;;5075249;28;20366;-70
2023/08/15 05:42:37;;;;;;;;;;;;;;;;;;5092768;28;19908;-70
2023/08/15 05:45:03;;;;;;;;;;;;;;;;;;5093605;28;20261;-71
2023/08/15 05:47:29;;;;;;;;;;;;;;;;;;5092745;28;19943;-70
2023/08/15 05:49:55;;;;;;;;;;;;;;;;;;5093439;28;19955;-71
2023/08/15 05:52:21;;;;;;;;;;;;;;;;;;5093424;28;19973;-72
2023/08/15 05:54:46;;;;;;;;;;;;;;;;;;5093096;28;20340;-70
2023/08/15 05:57:12;;;;;;;;;;;;;;;;;;5093526;28;19947;-72
2023/08/15 05:59:38;;;;;;;;;;;;;;;;;;5092531;28;19919;-72
2023/08/15 06:02:04;;;;;;;;;;;;;;;;;;5093473;28;19961;-72
2023/08/15 06:04:30;;;;;;;;;;;;;;;;;;5092575;28;19965;-70
2023/08/15 06:06:56;;;;;;;;;;;;;;;;;;5093369;28;19991;-72
2023/08/15 06:09:22;;;;;;;;;;;;;;;;;;5100794;28;20384;-72
2023/08/15 06:11:50;;;;;;;;;;;;;;;;;;5106454;28;19892;-71
2023/08/15 06:14:15;;;;;;;;;;;;;;;;;;5113215;28;19943;-70
2023/08/15 06:16:41;;;;;;;;;;;;;;;;;;5112781;28;19908;-71
2023/08/15 06:19:08;;;;;;;;;;;;;;;;;;5105309;28;19908;-70
2023/08/15 06:21:34;;;;;;;;;;;;;;;;;;5132572;28;19919;-70
2023/08/15 06:23:59;;;;;;;;;;;;;;;;;;5136431;28;19951;-69
2023/08/15 06:26:25;;;;;;;;;;;;;;;;;;5123633;28;19910;-73
2023/08/15 06:28:51;;;;;;;;;;;;;;;;;;5133942;27;20032;-70
2023/08/15 06:31:17;;;;;;;;;;;;;;;;;;5134895;27;20280;-70
2023/08/15 06:33:43;;;;;;;;;;;;;;;;;;5133924;27;19923;-71
2023/08/15 06:36:09;;;;;;;;;;;;;;;;;;5134435;27;20341;-71
2023/08/15 06:38:35;;;;;;;;;;;;;;;;;;5132930;28;19994;-70
2023/08/15 06:41:02;;;;;;;;;;;;;;;;;;5134105;28;19907;-72
2023/08/15 06:43:28;;;;;;;;;;;;;;;;;;5133972;28;19907;-71
2023/08/15 06:45:54;;;;;;;;;;;;;;;;;;5133323;28;19991;-71
2023/08/15 06:48:20;;;;;;;;;;;;;;;;;;5133843;28;20435;-71
2023/08/15 06:50:46;;;;;;;;;;;;;;;;;;5133183;28;20268;-71
2023/08/15 06:53:12;;;;;;;;;;;;;;;;;;5133608;28;19907;-72
2023/08/15 06:55:38;;;;;;;;;;;;;;;;;;5132899;28;19904;-72
2023/08/15 06:58:04;;;;;;;;;;;;;;;;;;5133448;28;19903;-71
2023/08/15 07:00:30;;;;;;;;;;;;;;;;;;5133535;28;20011;-71
2023/08/15 07:02:55;;;;;;;;;;;;;;;;;;5133229;28;20266;-71
2023/08/15 07:05:21;;;;;;;;;;;;;;;;;;5133386;28;19914;-71
2023/08/15 07:07:47;;;;;;;;;;;;;;;;;;5132864;28;20416;-71
2023/08/15 07:10:14;;;;;;;;;;;;;;;;;;5133523;28;19907;-72
2023/08/15 07:12:40;;;;;;;;;;;;;;;;;;5132472;28;19908;-70
2023/08/15 07:15:06;;;;;;;;;;;;;;;;;;5133349;28;19904;-71
2023/08/15 07:17:32;;;;;;;;;;;;;;;;;;5133018;28;19968;-71
2023/08/15 07:19:58;;;;;;;;;;;;;;;;;;5133051;28;19907;-71
2023/08/15 07:22:23;;;;;;;;;;;;;;;;;;5133379;28;20013;-72
2023/08/15 07:24:49;;;;;;;;;;;;;;;;;;5132537;28;19956;-71
2023/08/15 07:27:15;;;;;;;;;;;;;;;;;;5127479;28;19903;-71
2023/08/15 07:29:41;;;;;;;;;;;;;;;;;;5111820;28;19908;-71
2023/08/15 07:32:08;;;;;;;;;;;;;;;;;;5112649;28;19910;-71
2023/08/15 07:34:34;;;;;;;;;;;;;;;;;;5111372;28;19968;-71
2023/08/15 07:37:00;;;;;;;;;;;;;;;;;;5112708;28;19939;-72
2023/08/15 07:39:25;;;;;;;;;;;;;;;;;;5112734;28;20390;-72
2023/08/15 07:41:51;;;;;;;;;;;;;;;;;;5111756;28;20111;-72
2023/08/15 07:44:17;;;;;;;;;;;;;;;;;;5112413;28;19903;-72
2023/08/15 07:46:43;;;;;;;;;;;;;;;;;;5111722;28;19911;-72
2023/08/15 07:49:10;;;;;;;;;;;;;;;;;;5115549;28;20324;-72
2023/08/15 07:51:36;;;;;;;;;;;;;;;;;;5115306;28;19903;-71
2023/08/15 07:54:02;;;;;;;;;;;;;;;;;;5116070;28;20422;-72
2023/08/15 07:56:30;;;;;;;;;;;28.50;99.90;;;;;;5116260;28;19939;-73
2023/08/15 07:58:55;;;;;;;;;;;28.60;99.90;;;;;;5115813;28;19907;-72
2023/08/15 08:01:20;;;;;;;;;;;28.70;99.90;;;;;;5116563;28;19914;-72
2023/08/15 08:03:47;;;;;;;;;;;28.70;99.90;;;;;;5115271;28;20346;-72
2023/08/15 08:06:12;;;;;;;;;;;28.70;99.90;;;;;;5115903;28;19946;-71
2023/08/15 08:08:38;;;;;;;;;;;28.70;99.90;;;;;;5115070;28;19904;-71
2023/08/15 08:11:03;;;;;;;;;;;28.70;99.90;;;;;;5115566;28;19904;-71
2023/08/15 08:13:29;;;;;;;;;;;28.80;99.90;;;;;;5115727;28;20280;-72
2023/08/15 08:15:54;;;;;;;;;;;28.80;99.90;;;;;;5115036;28;19907;-72
2023/08/15 08:18:20;;;;;;;;;;;28.80;99.90;;;;;;5115783;28;19904;-72
2023/08/15 08:20:45;;;;;;;;;;;28.70;99.90;;;;;;5096315;28;19939;-71
2023/08/15 08:23:13;;;;;;;;;;;28.70;99.90;;;;;;5115413;28;19927;-71
2023/08/15 08:25:39;;;;;;;;;;;28.60;99.90;;;;;;5114742;28;19910;-71
2023/08/15 08:28:07;;;;;;;;;;;;;;;;;;5128357;27;20468;-71
2023/08/15 08:30:34;;;;;;;;;;;;;;;;;;5136113;27;19903;-71
2023/08/15 08:33:00;;;;;;;;;;;;;;;;;;5134744;27;19916;-72
2023/08/15 08:35:26;;;;;;;;;;;;;;;;;;5135874;27;20279;-73
2023/08/15 08:37:52;;;;;;;;;;;;;;;;;;5135057;27;20002;-73
2023/08/15 08:40:18;;;;;;;;;;;;;;;;;;5135688;27;20356;-71
2023/08/15 08:42:44;;;;;;;;;;;;;;;;;;5135106;27;19907;-72
2023/08/15 08:45:10;;;;;;;;;;;;;;;;;;5135644;27;19956;-72
2023/08/15 08:47:36;;;;;;;;;;;;;;;;;;5135215;27;19904;-70
2023/08/15 08:50:02;;;;;;;;;;;;;;;;;;5134914;27;19930;-71
2023/08/15 08:52:28;;;;;;;;;;;;;;;;;;5135535;27;19955;-72
2023/08/15 08:54:54;;;;;;;;;;;;;;;;;;5134871;27;19998;-71
2023/08/15 08:57:20;;;;;;;;;;;;;;;;;;5135134;27;19968;-72
2023/08/15 08:59:46;;;;;;;;;;;;;;;;;;5133566;27;19907;-71
2023/08/15 09:02:11;;;;;;;;;;;;;;;;;;5135564;27;19937;-72
2023/08/15 09:04:37;;;;;;;;;;;;;;;;;;5134936;27;20007;-71
2023/08/15 09:07:03;;;;;;;;;;;;;;;;;;5134453;27;20337;-72
2023/08/15 09:09:29;;;;;;;;;;;;;;;;;;5135080;27;19903;-71
2023/08/15 09:11:55;;;;;;;;;;;;;;;;;;5134300;27;20508;-73
2023/08/15 09:14:21;;;;;;;;;;;;;;;;;;5135128;27;19931;-72
2023/08/15 09:16:50;;;;;;;;;;;;;;;;;;5134247;27;19907;-71
2023/08/15 09:19:16;;;;;;;;;;;29.80;99.90;;;;;;5116407;27;19907;-72
2023/08/15 09:21:42;;;;;;;;;;;30.00;99.90;;;;;;5115848;27;19960;-70
2023/08/15 09:24:07;;;;;;;;;;;30.10;99.90;;;;;;5134883;27;19907;-72
2023/08/15 09:26:34;;;;;;;;;;;30.10;99.90;;;;;;5134514;27;20055;-71
2023/08/15 09:29:01;;;;;;;;;;;30.30;99.90;;;;;;5113258;28;19926;-72
2023/08/15 09:31:29;;;;;;;;;;;;;;;;;;5113812;28;19911;-72
2023/08/15 09:33:55;;;;;;;;;;;;;;;;;;5112389;28;20407;-72
2023/08/15 09:36:23;;;;;;;;;;;;;;;;;;5114021;28;19914;-72
2023/08/15 09:38:51;;;;;;;;;;;;;;;;;;5112913;28;19908;-71
2023/08/15 09:41:20;;;;;;;;;;;;;;;;;;5113925;28;19930;-71
2023/08/15 09:43:47;;;;;;;;;;;;;;;;;;5113155;28;19908;-71
2023/08/15 09:46:14;;;;;;;;;;;;;;;;;;5113928;28;19903;-72
2023/08/15 09:48:41;;;;;;;;;;;;;;;;;;5113763;28;19972;-71
2023/08/15 09:51:08;;;;;;;;;;;;;;;;;;5113335;28;19912;-73
2023/08/15 09:53:36;;;;;;;;;;;;;;;;;;5113847;28;19908;-72
2023/08/15 09:56:03;;;;;;;;;;;;;;;;;;5112807;28;20551;-71
2023/08/15 09:58:30;;;;;;;;;;;;;;;;;;5113833;28;19907;-72
2023/08/15 10:00:57;;;;;;;;;;;;;;;;;;5112997;28;20368;-72
2023/08/15 10:03:23;;;;;;;;;;;;;;;;;;5113719;28;20011;-73
2023/08/15 10:05:53;;;;;;;;;;;31.10;99.90;;;;;;5113371;28;19903;-72
2023/08/15 10:08:19;;;;;;;;;;;31.10;99.90;;;;;;5113950;28;19949;-71
2023/08/15 10:10:47;;;;;;;;;;;31.20;97.20;;;;;;5112792;28;20245;-70
2023/08/15 10:13:13;;;;;;;;;;;31.30;96.40;;;;;;5114136;28;20375;-73
2023/08/15 10:15:39;;;;;;;;;;;31.40;95.80;;;;;;5114068;28;19904;-72
2023/08/15 10:18:05;;;;;;;;;;;31.50;95.30;;;;;;5113116;28;19940;-73
2023/08/15 10:20:37;;;;;;;;;;;31.50;95.20;;;;;;5113671;28;20312;-72
2023/08/15 10:23:07;;;;;;;;;;;31.40;95.20;;;;;;5112505;28;19918;-73
2023/08/15 10:25:37;;;;;;;;;;;31.40;95.40;;;;;;5113480;28;19919;-72
2023/08/15 10:28:04;;;;;;;;;;;31.40;95.20;;;;;;5125331;27;19933;-72
2023/08/15 10:30:29;;;;;;;;;;;31.30;95.50;;;;;;5133839;27;19903;-71
2023/08/15 10:32:58;;;;;;;;;;;31.20;95.60;;;;;;5132510;27;20385;-71
2023/08/15 10:35:24;;;;;;;;;;;31.20;95.70;;;;;;5133817;27;19912;-72
2023/08/15 10:37:50;;;;;;;;;;;31.10;95.70;;;;;;5133121;28;19904;-72
2023/08/15 10:40:15;;;;;;;;;;;31.00;95.90;;;;;;5133517;28;19907;-72
2023/08/15 10:43:16;;;;;;;;;;;31.00;95.50;;;;;;5133642;28;19915;-72
2023/08/15 10:45:45;;;;;;;;;;;30.80;95.80;;;;;;5030193;28;19931;-71
2023/08/15 10:48:11;;;;;;;;;;;30.80;95.60;;;;;;5114346;28;19909;-72
2023/08/15 10:50:41;;;;;;;;;;;30.90;95.50;;;;;;5133441;28;20268;-73
2023/08/15 10:53:07;;;;;;;;;;;31.10;95.40;;;;;;5132966;28;20412;-73
2023/08/15 10:55:34;;;;;;;;;;;31.20;95.00;;;;;;5133283;28;19908;-72
2023/08/15 10:58:02;;;;;;;;;;;31.40;95.10;;;;;;5132528;28;19910;-72
2023/08/15 11:00:28;;;;;;;;;;;31.60;92.30;;;;;;5133284;28;19907;-72
2023/08/15 11:02:53;;;;;;;;;;;31.80;87.80;;;;;;5132454;28;19960;-72
2023/08/15 11:05:19;;;;;;;;;;;;;;;;;;5114816;28;20011;-72
2023/08/15 11:07:45;;;;;;;;;;;;;;;;;;5132849;28;19903;-70
2023/08/15 11:10:11;;;;;;;;;;;;;;;;;;5132578;28;19903;-71
2023/08/15 11:12:37;;;;;;;;;;;;;;;;;;5133280;28;19903;-71
2023/08/15 11:15:03;;;;;;;;;;;;;;;;;;5132445;28;19961;-72
2023/08/15 11:17:29;;;;;;;;;;;;;;;;;;5133170;28;19947;-71
2023/08/15 11:19:55;;;;;;;;;;;;;;;;;;5132203;28;19914;-72
2023/08/15 11:22:20;;;;;;;;;;;;;;;;;;5133671;27;20252;-72
2023/08/15 11:24:46;;;;;;;;;;;;;;;;;;5136454;27;19949;-72
2023/08/15 11:27:12;;;;;;;;;;;;;;;;;;5130761;27;19907;-72
2023/08/15 11:29:38;;;;;;;;;;;;;;;;;;5116534;28;20440;-73
2023/08/15 11:32:04;;;;;;;;;;;;;;;;;;5115751;28;19903;-72
2023/08/15 11:34:30;;;;;;;;;;;;;;;;;;5094387;28;19939;-72
2023/08/15 11:36:56;;;;;;;;;;;;;;;;;;5095173;28;19907;-71
2023/08/15 11:39:22;;;;;;;;;;;;;;;;;;5095903;28;20010;-72
2023/08/15 11:41:48;;;;;;;;;;;;;;;;;;5095539;28;19918;-72
2023/08/15 11:44:13;;;;;;;;;;;;;;;;;;5095921;28;19912;-71
2023/08/15 11:46:42;;;;;;;;;;;;;;;;;;5095667;28;20316;-72
2023/08/15 11:49:14;;;;;;;;;;;32.80;80.70;;;;;;5094820;28;19900;-70
2023/08/15 11:51:40;;;;;;;;;;;32.80;81.50;;;;;;5095759;28;19951;-72
2023/08/15 11:54:05;;;;;;;;;;;33.00;81.40;;;;;;5094730;28;20155;-72
2023/08/15 11:56:46;;;;;;;;;;;33.10;81.20;;;;;;5095909;28;19904;-72
2023/08/15 11:59:14;;;;;;;;;;;33.20;82.10;;;;;;5095059;28;19931;-71
2023/08/15 12:01:43;;;;;;;;;;;33.50;82.00;;;;;;5095814;28;19919;-71
2023/08/15 12:04:11;;;;;;;;;;;33.40;82.30;;;;;;5094800;28;19927;-71
2023/08/15 12:06:38;;;;;;;;;;;33.50;83.00;;;;;;5095275;28;19991;-72
2023/08/15 12:09:04;;;;;;;;;;;33.60;83.60;;;;;;5094611;28;19904;-72
2023/08/15 12:11:32;;;;;;;;;;;33.70;83.30;;;;;;5095316;28;19904;-72
2023/08/15 12:14:02;;;;;;;;;;;;;;;;;;5094926;28;19904;-72
2023/08/15 12:16:28;;;;;;;;;;;;;;;;;;5095248;28;19899;-73
2023/08/15 12:18:54;;;;;;;;;;;;;;;;;;5094065;28;19910;-72
2023/08/15 12:21:19;;;;;;;;;;;;;;;;;;5094719;28;19908;-73
2023/08/15 12:23:45;;;;;;;;;;;;;;;;;;5095071;28;20300;-72
2023/08/15 12:26:11;;;;;;;;;;;;;;;;;;5094192;28;19900;-72
2023/08/15 12:28:37;;;;;;;;;;;;;;;;;;5112311;28;19991;-72
2023/08/15 12:31:03;;;;;;;;;;;;;;;;;;5114107;28;19907;-72
2023/08/15 12:33:33;;;;;;;;;;;;;;;;;;5119905;27;19916;-71
2023/08/15 12:35:59;;;;;;;;;;;;;;;;;;5134702;27;20370;-71
2023/08/15 12:38:25;;;;;;;;;;;;;;;;;;5135715;27;19903;-71
2023/08/15 12:40:51;;;;;;;;;;;;;;;;;;5135355;27;19985;-70
2023/08/15 12:43:17;;;;;;;;;;;;;;;;;;5135188;27;19907;-71
2023/08/15 12:45:42;;;;;;;;;;;;;;;;;;5135848;27;19946;-72
2023/08/15 12:48:10;;;;;;;;;;;;;;;;;;5134457;27;20302;-71
2023/08/15 12:50:35;;;;;;;;;;;;;;;;;;5135795;27;20009;-73
2023/08/15 12:53:01;;;;;;;;;;;;;;;;;;5134847;27;19957;-71
2023/08/15 12:55:27;;;;;;;;;;;;;;;;;;5135516;27;20344;-72
2023/08/15 12:57:53;;;;;;;;;;;;;;;;;;5134794;27;19903;-71
2023/08/15 13:00:19;;;;;;;;;;;;;;;;;;5135096;27;20279;-72
2023/08/15 13:02:45;;;;;;;;;;;;;;;;;;5135254;27;19950;-72
2023/08/15 13:05:11;;;;;;;;;;;;;;;;;;5134021;27;19976;-71
2023/08/15 13:07:37;;;;;;;;;;;;;;;;;;5134935;27;19992;-71
2023/08/15 13:10:03;;;;;;;;;;;;;;;;;;5115674;27;19946;-71
2023/08/15 13:12:29;;;;;;;;;;;;;;;;;;5134858;27;20262;-71
2023/08/15 13:14:55;;;;;;;;;;;;;;;;;;5134217;27;19904;-71
2023/08/15 13:17:21;;;;;;;;;;;;;;;;;;5134925;27;19990;-71
2023/08/15 13:19:47;;;;;;;;;;;;;;;;;;5134978;27;20014;-71
2023/08/15 13:22:12;;;;;;;;;;;;;;;;;;5133904;27;20535;-70
2023/08/15 13:24:38;;;;;;;;;;;;;;;;;;5134884;27;19903;-72
2023/08/15 13:27:04;;;;;;;;;;;;;;;;;;5129253;27;19903;-71
2023/08/15 13:29:30;;;;;;;;;;;;;;;;;;5114157;28;19908;-72
2023/08/15 13:31:56;;;;;;;;;;;;;;;;;;5113322;28;19910;-72
2023/08/15 13:34:22;;;;;;;;;;;;;;;;;;5113172;28;19919;-72
2023/08/15 13:36:48;;;;;;;;;;;;;;;;;;5113963;28;20349;-72
2023/08/15 13:39:14;;;;;;;;;;;;;;;;;;5113176;28;20002;-72
2023/08/15 13:41:40;;;;;;;;;;;;;;;;;;5113965;28;19919;-72
2023/08/15 13:44:07;;;;;;;;;;;;;;;;;;5113072;28;19910;-72
2023/08/15 13:46:33;;;;;;;;;;;;;;;;;;5112987;28;20249;-73
2023/08/15 13:48:59;;;;;;;;;;;;;;;;;;5113407;28;19910;-71
2023/08/15 13:51:27;;;;;;;;;;;;;;;;;;5113297;28;20272;-72
2023/08/15 13:53:52;;;;;;;;;;;;;;;;;;5113300;28;20337;-72
2023/08/15 13:56:18;;;;;;;;;;;;;;;;;;5112888;28;19946;-71
2023/08/15 13:58:44;;;;;;;;;;;;;;;;;;5113426;28;19910;-71
2023/08/15 14:01:10;;;;;;;;;;;;;;;;;;5112801;28;19914;-70
2023/08/15 14:03:36;;;;;;;;;;;;;;;;;;5113542;28;20021;-72
2023/08/15 14:06:03;;;;;;;;;;;;;;;;;;5112748;28;19903;-71
2023/08/15 14:08:29;;;;;;;;;;;;;;;;;;5113566;28;19911;-71
2023/08/15 14:10:55;;;;;;;;;;;;;;;;;;5113386;28;19904;-71
2023/08/15 14:13:21;;;;;;;;;;;;;;;;;;5113111;28;19939;-71
2023/08/15 14:15:47;;;;;;;;;;;;;;;;;;5113515;28;19998;-72
2023/08/15 14:18:13;;;;;;;;;;;;;;;;;;5112312;28;20402;-73
2023/08/15 14:20:39;;;;;;;;;;;;;;;;;;5113007;28;19907;-71
2023/08/15 14:23:05;;;;;;;;;;;;;;;;;;5112850;28;19998;-72
2023/08/15 14:25:30;;;;;;;;;;;;;;;;;;5113620;28;19903;-72
2023/08/15 14:27:56;;;;;;;;;;;;;;;;;;5124905;27;19903;-71
2023/08/15 14:30:22;;;;;;;;;;;;;;;;;;5133446;27;19907;-72
2023/08/15 14:32:48;;;;;;;;;;;;;;;;;;5134068;27;20057;-72
2023/08/15 14:35:14;;;;;;;;;;;;;;;;;;5132188;27;20337;-71
2023/08/15 14:37:40;;;;;;;;;;;;;;;;;;5133557;28;20351;-71
2023/08/15 14:40:06;;;;;;;;;;;;;;;;;;5132937;28;20006;-71
2023/08/15 14:42:33;;;;;;;;;;;;;;;;;;5133781;28;20386;-71
2023/08/15 14:44:59;;;;;;;;;;;;;;;;;;5133349;28;19925;-71
2023/08/15 14:47:25;;;;;;;;;;;;;;;;;;5133557;28;19907;-72
2023/08/15 14:49:51;;;;;;;;;;;;;;;;;;5133620;28;19954;-72
2023/08/15 14:52:17;;;;;;;;;;;;;;;;;;5132880;28;19909;-73
2023/08/15 14:54:42;;;;;;;;;;;;;;;;;;5133595;28;20363;-71
2023/08/15 14:57:08;;;;;;;;;;;;;;;;;;5134556;27;19935;-71
2023/08/15 14:59:35;;;;;;;;;;;;;;;;;;5137674;27;19949;-72
2023/08/15 15:02:01;;;;;;;;;;;;;;;;;;5137091;27;20355;-71
2023/08/15 15:04:27;;;;;;;;;;;;;;;;;;5137714;27;19904;-72
2023/08/15 15:06:52;;;;;;;;;;;;;;;;;;5137746;27;19908;-73
2023/08/15 15:09:18;;;;;;;;;;;;;;;;;;5136842;27;20045;-72
2023/08/15 15:11:44;;;;;;;;;;;;;;;;;;5137587;27;20002;-72
2023/08/15 15:14:10;;;;;;;;;;;;;;;;;;5136647;27;20056;-71
2023/08/15 15:16:36;;;;;;;;;;;;;;;;;;5118900;27;19903;-71
2023/08/15 15:19:02;;;;;;;;;;;;;;;;;;5136655;27;19903;-71
2023/08/15 15:21:28;;;;;;;;;;;;;;;;;;5137325;27;19907;-73
2023/08/15 15:23:53;;;;;;;;;;;;;;;;;;5146344;27;19911;-72
2023/08/15 15:26:19;;;;;;;;;;;;;;;;;;5154547;27;19934;-72
2023/08/15 15:28:45;;;;;;;;;;;;;;;;;;5131241;27;19998;-71
2023/08/15 15:31:11;;;;;;;;;;;;;;;;;;5137121;28;19914;-72
2023/08/15 15:33:37;;;;;;;;;;;;;;;;;;5136839;28;19915;-72
2023/08/15 15:36:03;;;;;;;;;;;;;;;;;;5138735;28;19907;-70
2023/08/15 15:38:29;;;;;;;;;;;;;;;;;;5139032;28;19907;-72
2023/08/15 15:40:55;;;;;;;;;;;;;;;;;;5134262;28;19911;-73
2023/08/15 15:43:20;;;;;;;;;;;;;;;;;;5117488;28;20002;-71
2023/08/15 15:45:46;;;;;;;;;;;;;;;;;;5118273;28;19903;-72
2023/08/15 15:48:12;;;;;;;;;;;;;;;;;;5116516;28;19915;-71
2023/08/15 15:50:38;;;;;;;;;;;;;;;;;;5116457;28;19958;-72
2023/08/15 15:53:04;;;;;;;;;;;;;;;;;;5117616;28;19964;-71
2023/08/15 15:55:30;;;;;;;;;;;;;;;;;;5117053;28;19910;-72
2023/08/15 15:57:56;;;;;;;;;;;;;;;;;;5116390;28;19904;-72
2023/08/15 16:00:22;;;;;;;;;;;;;;;;;;5115886;28;19965;-72